createdAt,value
2022-08-03T00:00:33.495Z,17.16
2022-08-03T00:03:01.625Z,17.04
2022-08-03T00:05:29.465Z,17.15
2022-08-03T00:07:57.222Z,17.14
2022-08-03T00:10:26.570Z,17.11
2022-08-03T00:12:55.044Z,17.02
2022-08-03T00:15:22.910Z,17.16
2022-08-03T00:17:53.029Z,16.93
2022-08-03T00:20:22.255Z,16.66
2022-08-03T00:22:50.284Z,16.88
2022-08-03T00:25:19.224Z,16.91
2022-08-03T00:27:48.620Z,17.02
2022-08-03T00:30:18.822Z,16.82
2022-08-03T00:32:47.628Z,16.95
2022-08-03T00:35:32.568Z,16.87
2022-08-03T00:38:04.045Z,16.54
2022-08-03T00:40:31.901Z,16.35
2022-08-03T00:43:02.124Z,16.20
2022-08-03T00:45:31.666Z,16.43
2022-08-03T00:48:00.224Z,16.39
2022-08-03T00:50:30.871Z,16.45
2022-08-03T00:53:00.618Z,16.60
2022-08-03T00:55:28.826Z,16.67
2022-08-03T00:57:59.430Z,16.47
2022-08-03T01:00:28.813Z,16.53
2022-08-03T01:02:56.751Z,16.49
2022-08-03T01:05:24.733Z,16.37
2022-08-03T01:08:04.443Z,16.14
2022-08-03T01:10:40.649Z,16.40
2022-08-03T01:14:02.389Z,16.31
2022-08-03T01:16:16.514Z,16.17
2022-08-03T01:18:48.485Z,16.05
2022-08-03T01:21:21.924Z,16.44
2022-08-03T01:24:13.698Z,16.45
2022-08-03T01:27:03.967Z,16.28
2022-08-03T01:29:53.260Z,16.38
2022-08-03T01:33:02.302Z,16.65
2022-08-03T01:35:17.536Z,16.71
2022-08-03T01:37:52.772Z,16.59
2022-08-03T01:40:23.127Z,16.62
2022-08-03T01:42:52.699Z,16.56
2022-08-03T01:45:23.577Z,16.58
2022-08-03T01:47:52.835Z,16.51
2022-08-03T01:50:23.430Z,16.27
2022-08-03T01:52:51.462Z,16.28
2022-08-03T01:55:21.207Z,16.23
2022-08-03T01:58:05.674Z,16.33
2022-08-03T02:00:38.269Z,16.31
2022-08-03T02:03:08.168Z,16.33
2022-08-03T02:05:37.385Z,16.18
2022-08-03T02:08:08.558Z,16.03
2022-08-03T02:10:37.254Z,16.00
2022-08-03T02:13:07.706Z,15.88
2022-08-03T02:15:38.519Z,15.82
2022-08-03T02:18:09.650Z,15.69
2022-08-03T02:20:39.124Z,15.86
2022-08-03T02:23:07.521Z,16.14
2022-08-03T02:25:39.960Z,16.16
2022-08-03T02:28:11.625Z,16.32
2022-08-03T02:30:46.819Z,16.17
2022-08-03T02:33:25.640Z,15.95
2022-08-03T02:35:55.209Z,15.86
2022-08-03T02:38:29.126Z,15.96
2022-08-03T02:40:59.642Z,15.76
2022-08-03T02:43:27.643Z,15.74
2022-08-03T02:46:10.727Z,15.70
2022-08-03T02:48:42.256Z,15.73
2022-08-03T02:51:10.816Z,15.55
2022-08-03T02:53:39.985Z,15.66
2022-08-03T02:56:09.907Z,15.47
2022-08-03T02:58:39.623Z,15.24
2022-08-03T03:01:09.171Z,15.40
2022-08-03T03:03:39.302Z,15.35
2022-08-03T03:06:15.248Z,15.37
2022-08-03T03:08:43.647Z,15.57
2022-08-03T03:11:12.615Z,15.50
2022-08-03T03:13:41.712Z,15.44
2022-08-03T03:16:13.941Z,15.28
2022-08-03T03:18:43.600Z,15.10
2022-08-03T03:21:12.576Z,15.04
2022-08-03T03:23:42.420Z,15.18
2022-08-03T03:26:10.729Z,15.29
2022-08-03T03:28:38.881Z,15.58
2022-08-03T03:31:07.861Z,15.41
2022-08-03T03:33:38.451Z,15.53
2022-08-03T03:36:06.707Z,15.28
2022-08-03T03:38:35.187Z,14.97
2022-08-03T03:41:03.378Z,15.20
2022-08-03T03:43:31.330Z,15.13
2022-08-03T03:46:00.360Z,15.29
2022-08-03T03:48:28.929Z,15.25
2022-08-03T03:50:59.225Z,15.11
2022-08-03T03:53:27.049Z,14.81
2022-08-03T03:55:59.221Z,14.64
2022-08-03T03:58:32.148Z,14.47
2022-08-03T04:01:00.250Z,14.54
2022-08-03T04:03:28.290Z,14.86
2022-08-03T04:06:13.531Z,14.90
2022-08-03T04:09:15.119Z,14.93
2022-08-03T04:11:48.709Z,15.26
2022-08-03T04:14:21.095Z,15.19
2022-08-03T04:16:52.850Z,15.19
2022-08-03T04:19:28.126Z,15.14
2022-08-03T04:22:00.223Z,15.16
2022-08-03T04:24:35.073Z,15.19
2022-08-03T04:27:05.947Z,14.96
2022-08-03T04:29:36.028Z,15.01
2022-08-03T04:32:09.185Z,15.04
2022-08-03T04:34:36.980Z,14.85
2022-08-03T04:37:11.955Z,14.53
2022-08-03T04:39:44.107Z,14.66
2022-08-03T04:42:15.120Z,15.00
2022-08-03T04:44:45.445Z,15.30
2022-08-03T04:47:13.238Z,15.31
2022-08-03T04:49:41.605Z,15.45
2022-08-03T04:52:10.870Z,15.15
2022-08-03T04:54:50.601Z,15.11
2022-08-03T04:57:22.921Z,14.47
2022-08-03T04:59:58.153Z,14.30
2022-08-03T05:02:31.055Z,14.54
2022-08-03T05:04:59.240Z,14.74
2022-08-03T05:07:35.529Z,15.04
2022-08-03T05:10:14.682Z,14.89
2022-08-03T05:12:44.850Z,15.42
2022-08-03T05:15:13.096Z,15.26
2022-08-03T05:17:41.716Z,15.48
2022-08-03T05:20:11.068Z,15.70
2022-08-03T05:22:38.849Z,15.88
2022-08-03T05:25:08.777Z,15.95
2022-08-03T05:27:36.762Z,16.17
2022-08-03T05:30:30.542Z,16.03
2022-08-03T05:32:54.416Z,16.20
2022-08-03T05:35:56.096Z,16.55
2022-08-03T05:38:10.412Z,16.59
2022-08-03T05:40:39.823Z,16.62
2022-08-03T05:43:24.581Z,16.92
2022-08-03T05:46:11.457Z,16.95
2022-08-03T05:48:40.249Z,17.08
2022-08-03T05:51:11.549Z,17.11
2022-08-03T05:53:40.218Z,17.30
2022-08-03T05:56:13.542Z,17.13
2022-08-03T05:58:43.365Z,17.30
2022-08-03T06:01:11.468Z,17.44
2022-08-03T06:03:39.592Z,17.75
2022-08-03T06:06:07.519Z,17.90
2022-08-03T06:08:36.302Z,17.99
2022-08-03T06:11:04.783Z,18.06
2022-08-03T06:13:34.060Z,18.34
2022-08-03T06:16:02.146Z,18.35
2022-08-03T06:18:29.935Z,18.77
2022-08-03T06:20:57.743Z,18.99
2022-08-03T06:23:53.155Z,19.01
2022-08-03T06:26:22.833Z,19.04
2022-08-03T06:28:54.286Z,19.30
2022-08-03T06:31:24.031Z,19.58
2022-08-03T06:34:34.447Z,19.93
2022-08-03T06:36:40.241Z,19.98
2022-08-03T06:39:08.724Z,20.23
2022-08-03T06:41:38.031Z,20.41
2022-08-03T06:44:14.743Z,20.68
2022-08-03T06:46:43.335Z,20.85
2022-08-03T06:49:11.327Z,21.10
2022-08-03T06:52:04.934Z,21.36
2022-08-03T06:54:27.115Z,21.46
2022-08-03T06:56:55.400Z,21.78
2022-08-03T07:00:09.187Z,22.02
2022-08-03T07:02:12.449Z,22.23
2022-08-03T07:04:46.997Z,22.57
2022-08-03T07:07:14.963Z,22.73
2022-08-03T07:09:42.748Z,22.75
2022-08-03T07:12:25.332Z,22.89
2022-08-03T07:15:00.033Z,23.18
2022-08-03T07:17:29.216Z,23.55
2022-08-03T07:19:57.104Z,23.62
2022-08-03T07:22:25.114Z,24.07
2022-08-03T07:24:52.919Z,24.21
2022-08-03T07:27:21.235Z,24.44
2022-08-03T07:29:49.081Z,24.65
2022-08-03T07:32:18.499Z,24.99
2022-08-03T07:34:46.607Z,25.01
2022-08-03T07:37:14.403Z,25.32
2022-08-03T07:39:42.220Z,25.47
2022-08-03T07:42:10.120Z,25.36
2022-08-03T07:44:39.308Z,25.57
2022-08-03T07:47:07.188Z,25.60
2022-08-03T07:49:42.251Z,26.19
2022-08-03T07:52:28.298Z,26.22
2022-08-03T07:54:57.427Z,26.40
2022-08-03T07:57:25.276Z,26.70
2022-08-03T08:00:01.390Z,27.05
2022-08-03T08:02:39.869Z,27.21
2022-08-03T08:05:10.768Z,27.72
2022-08-03T08:07:39.325Z,27.75
2022-08-03T08:10:08.113Z,27.67
2022-08-03T08:12:35.958Z,27.96
2022-08-03T08:15:04.520Z,28.39
2022-08-03T08:17:32.329Z,28.12
2022-08-03T08:20:00.139Z,28.68
2022-08-03T08:22:30.678Z,28.26
2022-08-03T08:25:01.184Z,28.93
2022-08-03T08:28:31.372Z,28.71
2022-08-03T08:30:19.801Z,28.49
2022-08-03T08:32:48.004Z,28.72
2022-08-03T08:35:16.473Z,29.51
2022-08-03T08:37:51.268Z,29.81
2022-08-03T08:40:22.238Z,29.88
2022-08-03T08:42:58.472Z,30.02
2022-08-03T08:45:27.848Z,30.54
2022-08-03T08:48:01.077Z,30.53
2022-08-03T08:50:31.178Z,30.90
2022-08-03T08:53:03.042Z,30.67
2022-08-03T08:55:58.808Z,30.88
2022-08-03T08:58:22.565Z,30.89
2022-08-03T09:00:51.653Z,31.75
2022-08-03T09:03:26.155Z,31.80
2022-08-03T09:06:00.359Z,32.03
2022-08-03T09:08:29.984Z,32.34
2022-08-03T09:10:57.867Z,32.14
2022-08-03T09:13:26.237Z,31.85
2022-08-03T09:16:15.714Z,31.49
2022-08-03T09:18:45.245Z,31.97
2022-08-03T09:21:32.541Z,32.68
2022-08-03T09:24:06.222Z,32.76
2022-08-03T09:26:38.343Z,32.82
2022-08-03T09:29:13.160Z,33.12
2022-08-03T09:31:44.898Z,33.17
2022-08-03T09:34:15.369Z,33.45
2022-08-03T09:36:45.716Z,33.92
2022-08-03T09:39:16.892Z,33.68
2022-08-03T09:41:47.407Z,34.05
2022-08-03T09:44:25.761Z,34.06
2022-08-03T09:46:55.639Z,34.40
2022-08-03T09:49:24.362Z,34.64
2022-08-03T09:52:33.195Z,34.58
2022-08-03T09:54:42.650Z,34.88
2022-08-03T09:57:21.807Z,34.59
2022-08-03T09:59:49.773Z,34.45
2022-08-03T10:02:25.354Z,34.14
2022-08-03T10:04:54.198Z,34.75
2022-08-03T10:07:23.682Z,35.16
2022-08-03T10:09:58.342Z,35.05
2022-08-03T10:12:48.124Z,34.85
2022-08-03T10:16:22.878Z,34.55
2022-08-03T10:18:03.983Z,34.29
2022-08-03T10:20:34.430Z,34.57
2022-08-03T10:23:03.884Z,34.83
2022-08-03T10:25:35.150Z,35.13
2022-08-03T10:28:05.400Z,35.68
2022-08-03T10:30:34.244Z,35.66
2022-08-03T10:33:12.307Z,34.88
2022-08-03T10:35:58.171Z,34.60
2022-08-03T10:38:32.187Z,34.75
2022-08-03T10:41:03.072Z,35.44
2022-08-03T10:43:37.304Z,35.55
2022-08-03T10:46:09.050Z,35.07
2022-08-03T10:48:37.929Z,36.20
2022-08-03T10:51:07.542Z,35.99
2022-08-03T10:53:37.468Z,35.37
2022-08-03T10:56:46.654Z,35.89
2022-08-03T10:59:12.274Z,36.86
2022-08-03T11:01:58.589Z,36.75
2022-08-03T11:04:29.217Z,37.01
2022-08-03T11:07:22.176Z,37.33
2022-08-03T11:09:51.753Z,36.53
2022-08-03T11:12:30.101Z,36.62
2022-08-03T11:15:00.827Z,37.25
2022-08-03T11:17:28.443Z,37.27
2022-08-03T11:19:57.871Z,37.67
2022-08-03T11:22:28.270Z,38.11
2022-08-03T11:25:00.251Z,36.98
2022-08-03T11:27:33.941Z,37.30
2022-08-03T11:30:05.396Z,36.99
2022-08-03T11:32:53.064Z,37.13
2022-08-03T11:35:22.841Z,36.75
2022-08-03T11:38:12.051Z,37.17
2022-08-03T11:40:42.815Z,37.89
2022-08-03T11:43:45.282Z,37.34
2022-08-03T11:46:28.609Z,38.51
2022-08-03T11:49:09.942Z,38.55
2022-08-03T11:51:40.009Z,38.60
2022-08-03T11:54:08.047Z,38.42
2022-08-03T11:56:45.882Z,38.25
2022-08-03T11:59:20.255Z,37.58
2022-08-03T12:01:48.946Z,36.51
2022-08-03T12:04:17.189Z,36.26
2022-08-03T12:06:59.587Z,36.73
2022-08-03T12:09:27.627Z,37.03
2022-08-03T12:12:00.435Z,38.13
2022-08-03T12:14:48.599Z,37.11
2022-08-03T12:17:18.820Z,37.60
2022-08-03T12:19:47.084Z,36.98
2022-08-03T12:22:16.730Z,37.35
2022-08-03T12:24:46.844Z,37.34
2022-08-03T12:27:24.502Z,38.20
2022-08-03T12:29:57.033Z,37.13
2022-08-03T12:32:27.498Z,37.57
2022-08-03T12:35:00.070Z,37.10
2022-08-03T12:37:28.606Z,38.08
2022-08-03T12:40:01.685Z,38.37
2022-08-03T12:42:32.503Z,38.23
2022-08-03T12:45:01.891Z,38.22
2022-08-03T12:47:29.656Z,38.04
2022-08-03T12:49:57.393Z,38.36
2022-08-03T12:52:27.202Z,36.26
2022-08-03T12:54:59.855Z,37.56
2022-08-03T12:57:41.750Z,37.45
2022-08-03T13:00:21.564Z,38.81
2022-08-03T13:03:38.548Z,38.09
2022-08-03T13:05:50.054Z,37.61
2022-08-03T13:08:21.051Z,37.14
2022-08-03T13:10:49.683Z,36.87
2022-08-03T13:13:17.599Z,37.68
2022-08-03T13:15:48.109Z,37.77
2022-08-03T13:18:17.342Z,37.89
2022-08-03T13:20:45.603Z,38.52
2022-08-03T13:23:22.046Z,38.80
2022-08-03T13:25:55.668Z,38.65
2022-08-03T13:28:24.281Z,38.85
2022-08-03T13:30:54.760Z,38.56
2022-08-03T13:33:22.707Z,39.12
2022-08-03T13:35:50.575Z,38.46
2022-08-03T13:38:18.389Z,39.20
2022-08-03T13:40:49.493Z,38.49
2022-08-03T13:43:17.909Z,38.76
2022-08-03T13:45:51.290Z,38.08
2022-08-03T13:48:37.291Z,38.23
2022-08-03T13:51:22.104Z,38.38
2022-08-03T13:53:51.564Z,39.00
2022-08-03T13:56:19.380Z,39.57
2022-08-03T13:58:47.234Z,39.70
2022-08-03T14:01:15.099Z,39.62
2022-08-03T14:03:44.254Z,39.06
2022-08-03T14:06:11.992Z,39.74
2022-08-03T14:08:39.826Z,39.62
2022-08-03T14:11:08.600Z,39.15
2022-08-03T14:13:36.381Z,39.50
2022-08-03T14:16:09.944Z,39.09
2022-08-03T14:18:37.879Z,38.42
2022-08-03T14:21:10.583Z,38.37
2022-08-03T14:23:38.654Z,38.18
2022-08-03T14:26:07.228Z,38.98
2022-08-03T14:28:35.102Z,38.82
2022-08-03T14:31:03.781Z,38.84
2022-08-03T14:33:31.733Z,38.81
2022-08-03T14:35:59.756Z,39.29
2022-08-03T14:38:28.987Z,39.76
2022-08-03T14:40:56.787Z,39.34
2022-08-03T14:43:24.788Z,38.50
2022-08-03T14:45:53.979Z,38.38
2022-08-03T14:50:33.249Z,38.65
2022-08-03T14:51:10.459Z,38.98
2022-08-03T14:53:39.634Z,39.34
2022-08-03T14:56:10.349Z,38.32
2022-08-03T14:58:39.432Z,38.59
2022-08-03T15:02:04.587Z,38.68
2022-08-03T15:03:56.352Z,38.48
2022-08-03T15:06:24.254Z,38.49
2022-08-03T15:09:21.242Z,38.60
2022-08-03T15:11:42.092Z,38.97
2022-08-03T15:14:10.194Z,38.68
2022-08-03T15:16:41.456Z,38.36
2022-08-03T15:20:02.416Z,38.89
2022-08-03T15:21:57.115Z,39.19
2022-08-03T15:24:30.366Z,38.75
2022-08-03T15:26:58.170Z,37.80
2022-08-03T15:30:06.812Z,37.88
2022-08-03T15:32:13.958Z,37.58
2022-08-03T15:34:50.438Z,37.51
2022-08-03T15:37:19.679Z,36.88
2022-08-03T15:39:58.451Z,37.78
2022-08-03T15:42:29.556Z,38.25
2022-08-03T15:44:57.485Z,38.17
2022-08-03T15:47:25.282Z,38.45
2022-08-03T15:49:53.043Z,38.09
2022-08-03T15:52:20.911Z,37.99
2022-08-03T15:54:50.283Z,38.38
2022-08-03T15:57:18.286Z,38.61
2022-08-03T15:59:46.349Z,38.07
2022-08-03T16:02:14.138Z,37.61
2022-08-03T16:04:41.996Z,37.51
2022-08-03T16:07:12.878Z,38.23
2022-08-03T16:09:42.078Z,37.87
2022-08-03T16:12:16.264Z,37.30
2022-08-03T16:14:52.313Z,37.55
2022-08-03T16:17:20.726Z,37.84
2022-08-03T16:19:48.811Z,37.32
2022-08-03T16:22:17.388Z,37.92
2022-08-03T16:24:47.580Z,38.18
2022-08-03T16:27:36.619Z,38.03
2022-08-03T16:30:05.106Z,37.55
2022-08-03T16:32:32.951Z,37.61
2022-08-03T16:35:01.266Z,35.72
2022-08-03T16:37:38.618Z,37.09
2022-08-03T16:40:19.053Z,37.32
2022-08-03T16:42:48.799Z,37.25
2022-08-03T16:45:16.621Z,37.31
2022-08-03T16:47:44.762Z,37.80
2022-08-03T16:50:19.032Z,37.27
2022-08-03T16:52:48.500Z,37.36
2022-08-03T16:55:18.372Z,37.81
2022-08-03T16:58:07.334Z,37.45
2022-08-03T17:00:41.103Z,36.99
2022-08-03T17:03:18.581Z,36.67
2022-08-03T17:05:49.562Z,37.14
2022-08-03T17:08:27.002Z,37.61
2022-08-03T17:10:56.349Z,37.60
2022-08-03T17:13:27.672Z,36.91
2022-08-03T17:16:09.222Z,36.44
2022-08-03T17:18:49.488Z,36.24
2022-08-03T17:21:22.972Z,36.51
2022-08-03T17:23:58.312Z,35.34
2022-08-03T17:26:30.607Z,35.33
2022-08-03T17:29:13.216Z,35.54
2022-08-03T17:31:49.706Z,35.20
2022-08-03T17:34:18.966Z,35.10
2022-08-03T17:37:04.799Z,35.57
2022-08-03T17:39:58.914Z,35.59
2022-08-03T17:42:38.797Z,35.71
2022-08-03T17:45:15.592Z,35.74
2022-08-03T17:47:44.096Z,35.53
2022-08-03T17:50:25.731Z,35.27
2022-08-03T17:53:39.588Z,35.26
2022-08-03T17:56:42.669Z,35.09
2022-08-03T17:59:44.371Z,34.64
2022-08-03T18:02:47.638Z,34.52
2022-08-03T18:05:18.639Z,34.17
2022-08-03T18:07:59.257Z,33.80
2022-08-03T18:10:36.166Z,33.62
2022-08-03T18:13:23.870Z,33.43
2022-08-03T18:15:59.474Z,33.18
2022-08-03T18:18:33.342Z,33.09
2022-08-03T18:21:04.601Z,33.00
2022-08-03T18:23:36.555Z,32.81
2022-08-03T18:26:06.789Z,32.75
2022-08-03T18:28:35.919Z,32.54
2022-08-03T18:31:05.719Z,32.09
2022-08-03T18:34:18.020Z,31.54
2022-08-03T18:36:29.914Z,31.28
2022-08-03T18:38:59.982Z,31.11
2022-08-03T18:41:33.427Z,30.87
2022-08-03T18:44:08.490Z,30.84
2022-08-03T18:47:08.084Z,30.82
2022-08-03T18:49:58.247Z,30.77
2022-08-03T18:52:31.983Z,30.77
2022-08-03T18:55:19.628Z,30.50
2022-08-03T18:57:53.261Z,30.28
2022-08-03T19:00:24.482Z,30.21
2022-08-03T19:03:12.472Z,29.94
2022-08-03T19:06:05.908Z,29.73
2022-08-03T19:08:47.936Z,29.95
2022-08-03T19:11:27.847Z,29.88
2022-08-03T19:13:59.249Z,29.89
2022-08-03T19:16:32.858Z,29.85
2022-08-03T19:19:03.018Z,29.69
2022-08-03T19:21:35.724Z,29.41
2022-08-03T19:24:09.687Z,29.31
2022-08-03T19:26:39.562Z,28.98
2022-08-03T19:29:10.817Z,28.68
2022-08-03T19:31:59.191Z,28.28
2022-08-03T19:34:29.668Z,28.28
2022-08-03T19:36:59.788Z,28.26
2022-08-03T19:39:27.811Z,28.10
2022-08-03T19:42:20.486Z,27.96
2022-08-03T19:44:56.525Z,27.47
2022-08-03T19:47:31.570Z,27.57
2022-08-03T19:50:10.414Z,27.48
2022-08-03T19:52:48.209Z,27.09
2022-08-03T19:55:18.261Z,27.13
2022-08-03T19:57:49.214Z,27.36
2022-08-03T20:00:26.595Z,27.14
2022-08-03T20:02:55.032Z,27.06
2022-08-03T20:05:22.957Z,26.43
2022-08-03T20:07:53.433Z,26.36
2022-08-03T20:10:22.206Z,26.47
2022-08-03T20:12:50.814Z,26.43
2022-08-03T20:15:30.936Z,26.43
2022-08-03T20:18:00.615Z,26.60
2022-08-03T20:20:31.875Z,26.24
2022-08-03T20:23:06.867Z,26.16
2022-08-03T20:25:48.924Z,26.01
2022-08-03T20:28:31.727Z,25.79
2022-08-03T20:31:00.117Z,25.84
2022-08-03T20:33:45.884Z,25.57
2022-08-03T20:36:17.813Z,25.39
2022-08-03T20:38:48.209Z,24.90
2022-08-03T20:41:16.473Z,24.89
2022-08-03T20:43:44.442Z,25.25
2022-08-03T20:46:31.756Z,25.03
2022-08-03T20:49:00.231Z,24.93
2022-08-03T20:51:49.025Z,25.16
2022-08-03T20:54:30.906Z,24.99
2022-08-03T20:57:00.779Z,24.97
2022-08-03T20:59:47.364Z,24.21
2022-08-03T21:02:29.619Z,23.83
2022-08-03T21:05:02.819Z,24.15
2022-08-03T21:08:04.062Z,23.89
2022-08-03T21:10:28.528Z,24.10
2022-08-03T21:13:16.003Z,23.94
2022-08-03T21:16:06.516Z,24.13
2022-08-03T21:18:38.038Z,24.16
2022-08-03T21:21:07.817Z,23.99
2022-08-03T21:23:47.567Z,24.06
2022-08-03T21:26:19.803Z,23.59
2022-08-03T21:28:48.515Z,23.62
2022-08-03T21:31:24.328Z,23.34
2022-08-03T21:33:55.833Z,23.04
2022-08-03T21:36:23.745Z,23.26
2022-08-03T21:38:56.861Z,23.65
2022-08-03T21:41:27.929Z,23.59
2022-08-03T21:43:55.969Z,23.27
2022-08-03T21:46:25.013Z,23.14
2022-08-03T21:48:56.262Z,22.99
2022-08-03T21:51:27.257Z,23.16
2022-08-03T21:54:02.639Z,23.08
2022-08-03T21:56:41.502Z,23.40
2022-08-03T21:59:16.814Z,23.34
2022-08-03T22:01:49.013Z,23.27
2022-08-03T22:04:50.351Z,22.68
2022-08-03T22:07:08.480Z,22.98
2022-08-03T22:09:36.715Z,22.66
2022-08-03T22:12:06.946Z,22.56
2022-08-03T22:14:34.823Z,22.40
2022-08-03T22:17:06.240Z,22.20
2022-08-03T22:19:35.218Z,21.98
2022-08-03T22:22:06.138Z,21.86
2022-08-03T22:24:37.206Z,22.32
2022-08-03T22:27:24.233Z,22.25
2022-08-03T22:29:53.895Z,21.95
2022-08-03T22:32:21.679Z,21.90
2022-08-03T22:34:50.447Z,21.90
2022-08-03T22:37:21.088Z,21.60
2022-08-03T22:39:50.670Z,21.71
2022-08-03T22:42:21.050Z,21.47
2022-08-03T22:44:50.482Z,21.52
2022-08-03T22:47:22.564Z,21.43
2022-08-03T22:50:31.209Z,21.84
2022-08-03T22:52:41.986Z,21.92
2022-08-03T22:55:13.130Z,21.94
2022-08-03T22:57:56.185Z,21.88
2022-08-03T23:00:24.741Z,21.74
2022-08-03T23:02:55.021Z,21.60
2022-08-03T23:06:00.476Z,21.42
2022-08-03T23:08:15.432Z,21.64
2022-08-03T23:10:47.042Z,21.75
2022-08-03T23:13:18.223Z,21.68
2022-08-03T23:15:53.531Z,21.28
2022-08-03T23:18:22.437Z,21.03
2022-08-03T23:20:51.328Z,21.28
2022-08-03T23:23:20.731Z,21.44
2022-08-03T23:25:50.370Z,21.29
2022-08-03T23:28:19.973Z,20.83
2022-08-03T23:30:50.997Z,21.00
2022-08-03T23:33:19.051Z,20.69
2022-08-03T23:36:29.005Z,20.75
2022-08-03T23:38:47.040Z,20.58
2022-08-03T23:41:17.647Z,20.86
2022-08-03T23:43:53.861Z,21.01
2022-08-03T23:46:22.627Z,20.52
2022-08-03T23:48:51.379Z,20.43
2022-08-03T23:51:27.566Z,20.73
2022-08-03T23:54:02.214Z,20.68
2022-08-03T23:56:38.354Z,20.37
2022-08-03T23:59:15.134Z,20.36
